• Join FlightAware (Why Join?)
  • Login
  • US Flag 
06:20PM EST


 

Airport Tracker/Info


-or-


 

Live Flight TrackerFlight Track Log ✈ ASQ4093 ✈ 03-May-2012 ✈ KLIT - KIAH

Flight Track Log - Related Links

Times and Time Zones

All times are in EDT time to prevent confusion due to time zone crossing. See the ASQ4093 flight status page for this flight to view local times or setup timezone preferences in your user account.

Time Position Orientation Groundspeed Altitude Reporting Facility
EDT Latitude Longitude Course Direction KTS MPH feet Rate Location/Type
07:06AM 34.7156 -92.2519 204° Southwest 229 264 800  Level Memphis Center
07:07AM 34.6714 -92.2764 187° South 172 198 3,600 1,980 Climbing Memphis Center
07:08AM 34.6108 -92.2850 191° South 225 259 5,000 1,680 Climbing Memphis Center
07:10AM 34.4933 -92.3125 172° South 279 321 8,400 1,800 Climbing Memphis Center
07:11AM 34.4122 -92.2981 172° South 279 321 10,100 1,560 Climbing Memphis Center
07:12AM 34.3250 -92.2836 189° South 300 345 11,600 1,200 Climbing Memphis Center
07:13AM 34.2328 -92.3017 188° South 323 372 12,600 1,500 Climbing Memphis Center
07:14AM 34.1303 -92.3194 189° South 352 405 14,700 2,040 Climbing Memphis Center
07:15AM 34.0319 -92.3372 187° South 350 403 16,700 1,380 Climbing Memphis Center
07:16AM 33.8631 -92.3636 188° South 352 405 18,500 1,020 Climbing Fort Worth Center
07:17AM 33.7575 -92.3822 187° South 369 425 19,500 1,020 Climbing Fort Worth Center
07:18AM 33.6475 -92.3983 189° South 391 450 20,600 1,080 Climbing Fort Worth Center
07:19AM 33.5378 -92.4197 187° South 397 457 21,700 1,200 Climbing Fort Worth Center
07:20AM 33.4236 -92.4361 189° South 410 472 23,000 1,260 Climbing Fort Worth Center
07:21AM 33.3117 -92.4572 187° South 410 472 24,300 1,320 Climbing Fort Worth Center
07:22AM 33.1997 -92.4733 188° South 410 472 25,700 1,380 Climbing Fort Worth Center
07:23AM 33.0856 -92.4922 187° South 410 472 27,100 1,380 Climbing Fort Worth Center
07:24AM 32.9797 -92.5081 189° South 404 465 28,500 1,200 Climbing Fort Worth Center
07:25AM 32.8722 -92.5286 188° South 404 465 29,600 720 Climbing Fort Worth Center
07:26AM 32.7603 -92.5472 187° South 409 471 30,000 180 Climbing Fort Worth Center
07:27AM 32.6378 -92.5661 191° South 426 490 30,000  Level Fort Worth Center
07:28AM 32.5836 -92.5792 189° South 448 516 30,000  Level Houston Center
07:29AM 32.4564 -92.6025 190° South 468 539 30,000  Level Houston Center
07:30AM 32.3164 -92.6308 185° South 468 539 30,000  Level Houston Center
07:31AM 32.2017 -92.6417 188° South 468 539 30,000  Level Houston Center
07:32AM 32.0744 -92.6625 195° South 468 539 30,000  Level Houston Center
07:33AM 31.9511 -92.7006 219° Southwest 468 539 30,000  Level Houston Center
07:34AM 31.8544 -92.7922 220° Southwest 438 504 30,000  Level Houston Center
07:35AM 31.7617 -92.8839 221° Southwest 443 510 30,000  Level Houston Center
07:36AM 31.6692 -92.9778 219° Southwest 443 510 30,000  Level Houston Center
07:37AM 31.5744 -93.0667 219° Southwest 448 516 30,000 -60 Level Houston Center
07:38AM 31.4775 -93.1578 219° Southwest 448 516 29,900  Descending Houston Center
07:39AM 31.3825 -93.2489 218° Southwest 448 516 30,000  Climbing Houston Center
07:40AM 31.2811 -93.3419 221° Southwest 453 521 30,000  Level Houston Center
07:41AM 31.1903 -93.4350 219° Southwest 446 513 30,000 -60 Level Houston Center
07:42AM 31.0931 -93.5256 219° Southwest 446 513 29,900 -60 Descending Houston Center
07:43AM 30.9981 -93.6156 219° Southwest 451 519 29,900 -720 Level Houston Center
07:44AM 30.9028 -93.7058 219° Southwest 451 519 28,500 -2,100 Descending Houston Center
07:45AM 30.7925 -93.8100 219° Southwest 457 526 25,700 -2,700 Descending Houston Center
07:46AM 30.6972 -93.8997 219° Southwest 457 526 23,200 -2,520 Descending Houston Center
07:47AM 30.6061 -93.9869 218° Southwest 446 513 20,800 -2,400 Descending Houston Center
07:48AM 30.5147 -94.0692 219° Southwest 436 502 18,400 -2,400 Descending Houston Center
07:49AM 30.4258 -94.1514 219° Southwest 425 489 16,000 -2,400 Descending Houston Center
07:50AM 30.3364 -94.2358 219° Southwest 419 482 13,600 -2,040 Descending Houston Center
07:51AM 30.2600 -94.3083 225° Southwest 392 451 12,100 -840 Descending Houston Center
07:52AM 30.1872 -94.3931 248° West 378 435 12,000 -300 Descending Houston Center
07:53AM 30.1542 -94.4858 246° West 342 394 11,500 -900 Descending Houston Center
07:54AM 30.1208 -94.5736 245° Southwest 319 367 10,300 -1,500 Descending Houston Center
07:55AM 30.0856 -94.6592 249° West 289 333 8,600 -1,680 Descending Houston Center
07:56AM 30.0567 -94.7469 247° West 288 331 7,000 -1,500 Descending Houston Center
07:57AM 30.0275 -94.8253 248° West 288 331 5,600 -1,020 Descending Houston Center
07:58AM 29.9986 -94.9058 265° West 288 331 5,000 -360 Descending Houston Center
07:59AM 29.9925 -94.9847 270° West 278 320 5,000 -360 Level Houston Center
08:00AM 29.9925 -95.0736 270° West 278 320 4,300 -1,080 Descending Houston Center
08:01AM 29.9922 -95.1575 270° West 272 313 2,900 -1,260 Descending Houston Center
08:02AM 29.9919 -95.2486 273° West 192 221 1,600 -1,020 Descending Houston Center
08:03AM 29.9933 -95.2797 273° West 212 244 900 -840 Descending Houston Center